Time;durP1;ratioP1;P1;durP2;ratioP2;P2;SDS_P1;SDS_P2;PMS_P1;PMS_P2;Temp;Humidity;BMP_temperature;BMP_pressure;BME280_temperature;BME280_humidity;BME280_pressure;Samples;Min_cycle;Max_cycle;Signal;HPM_P1;HPM_P2
2023/10/07 00:00:26;;;;;;;10.03;4.83;;;;;;;11.78;100.00;97065.44;5035769;28;21122;-68
2023/10/07 00:02:55;;;;;;;11.53;4.57;;;;;;;11.70;100.00;97071.53;5038263;28;20229;-68
2023/10/07 00:05:27;;;;;;;10.67;4.20;;;;;;;11.72;100.00;97060.81;5039664;28;20243;-68
2023/10/07 00:08:00;;;;;;;8.17;4.13;;;;;;;11.92;100.00;97067.41;5039051;28;20201;-68
2023/10/07 00:10:27;;;;;;;8.37;4.13;;;;;;;11.63;100.00;97061.78;5039361;28;20587;-68
2023/10/07 00:12:54;;;;;;;11.83;4.47;;;;;;;11.59;100.00;97057.81;5039207;28;20221;-68
2023/10/07 00:15:22;;;;;;;8.17;4.27;;;;;;;11.62;100.00;97057.47;5039284;28;20235;-68
2023/10/07 00:17:48;;;;;;;10.73;4.90;;;;;;;11.52;100.00;97056.84;5038057;28;20204;-68
2023/10/07 00:20:18;;;;;;;12.60;4.33;;;;;;;11.55;100.00;97059.94;5039551;28;20205;-68
2023/10/07 00:22:49;;;;;;;8.57;4.00;;;;;;;11.54;100.00;97057.47;5039502;28;20232;-68
2023/10/07 00:25:19;;;;;;;10.70;4.30;;;;;;;11.52;100.00;97062.13;5039037;28;20208;-68
2023/10/07 00:27:48;;;;;;;7.07;3.57;;;;;;;11.43;100.00;97063.06;5038285;28;20198;-68
2023/10/07 00:30:16;;;;;;;12.87;4.97;;;;;;;11.47;100.00;97060.91;5038833;28;20220;-68
2023/10/07 00:32:45;;;;;;;7.73;4.17;;;;;;;11.55;100.00;97060.97;5038903;28;20274;-68
2023/10/07 00:35:12;;;;;;;6.50;3.50;;;;;;;11.44;100.00;97059.41;5039123;28;20228;-68
2023/10/07 00:37:44;;;;;;;7.80;3.73;;;;;;;11.45;100.00;97049.69;5038362;28;20197;-68
2023/10/07 00:40:14;;;;;;;5.60;3.30;;;;;;;11.48;100.00;97052.84;5038535;28;20251;-68
2023/10/07 00:42:44;;;;;;;6.73;3.67;;;;;;;11.46;100.00;97048.72;5038148;28;20612;-68
2023/10/07 00:45:14;;;;;;;7.23;4.17;;;;;;;11.37;100.00;97050.50;5039969;28;20259;-68
2023/10/07 00:47:42;;;;;;;10.27;3.87;;;;;;;11.34;100.00;97050.84;5038445;28;20197;-68
2023/10/07 00:50:10;;;;;;;7.37;3.77;;;;;;;11.47;100.00;97056.47;5037618;28;20738;-68
2023/10/07 00:52:54;;;;;;;11.93;3.57;;;;;;;11.44;100.00;97059.41;5037863;28;20221;-68
2023/10/07 00:55:22;;;;;;;7.80;3.83;;;;;;;11.44;100.00;97051.50;5038425;28;20225;-68
2023/10/07 00:57:51;;;;;;;9.07;3.80;;;;;;;11.29;100.00;97053.13;5038208;28;20197;-68
2023/10/07 01:00:40;;;;;;;10.87;4.10;;;;;;;11.26;100.00;97047.34;5038181;28;20212;-68
2023/10/07 01:03:17;;;;;;;9.43;3.93;;;;;;;11.19;100.00;97044.53;5038411;28;20239;-68
2023/10/07 01:06:09;;;;;;;6.37;3.13;;;;;;;11.41;100.00;97049.19;5037694;28;20288;-68
2023/10/07 01:08:38;;;;;;;5.53;3.10;;;;;;;11.01;100.00;97051.72;5037564;28;20201;-68
2023/10/07 01:11:08;;;;;;;6.37;3.60;;;;;;;11.11;100.00;97047.16;5038183;28;21646;-68
2023/10/07 01:13:36;;;;;;;6.23;4.03;;;;;;;11.14;100.00;97038.91;5037855;28;20208;-68
2023/10/07 01:16:06;;;;;;;6.63;3.87;;;;;;;10.95;100.00;97033.09;5037597;28;20207;-68
2023/10/07 01:18:38;;;;;;;7.90;3.90;;;;;;;10.94;100.00;97045.44;5037548;28;20205;-68
2023/10/07 01:21:11;;;;;;;12.37;4.10;;;;;;;11.11;100.00;97044.50;5036871;28;20317;-68
2023/10/07 01:23:40;;;;;;;7.27;4.17;;;;;;;11.13;100.00;97045.16;5037704;28;20206;-68
2023/10/07 01:26:15;;;;;;;10.37;4.10;;;;;;;11.01;100.00;97041.19;5038145;28;20199;-68
2023/10/07 01:28:43;;;;;;;6.17;3.63;;;;;;;11.06;100.00;97046.81;5037384;28;20266;-68
2023/10/07 01:31:12;;;;;;;9.07;4.33;;;;;;;10.91;100.00;97052.00;5037420;28;20220;-68
2023/10/07 01:33:41;;;;;;;7.40;3.87;;;;;;;10.98;100.00;97046.78;5038063;28;20292;-68
2023/10/07 01:36:13;;;;;;;11.30;4.37;;;;;;;11.03;100.00;97057.66;5037546;28;20201;-68
2023/10/07 01:38:44;;;;;;;9.07;4.10;;;;;;;11.13;100.00;97055.72;5037303;28;20310;-68
2023/10/07 01:41:14;;;;;;;11.90;4.47;;;;;;;10.94;100.00;97055.97;5037166;28;20228;-68
2023/10/07 01:43:41;;;;;;;11.90;5.47;;;;;;;10.81;100.00;97056.59;5037734;28;20312;-68
2023/10/07 01:46:10;;;;;;;9.93;4.30;;;;;;;10.76;100.00;97054.44;5037252;28;20211;-68
2023/10/07 01:48:37;;;;;;;9.30;4.30;;;;;;;10.80;100.00;97054.94;5037257;28;20205;-68
2023/10/07 01:51:05;;;;;;;9.77;5.10;;;;;;;10.83;100.00;97049.34;5037418;28;20618;-68
2023/10/07 01:53:32;;;;;;;12.77;4.77;;;;;;;10.84;100.00;97054.47;5036909;28;20212;-68
2023/10/07 01:56:04;;;;;;;7.23;4.10;;;;;;;10.89;100.00;97041.63;5036744;28;20556;-68
2023/10/07 01:58:31;;;;;;;8.20;4.77;;;;;;;10.79;100.00;97045.38;5037887;28;20209;-68
2023/10/07 02:00:59;;;;;;;10.00;4.53;;;;;;;10.75;100.00;97038.78;5036837;28;20197;-68
2023/10/07 02:03:26;;;;;;;9.77;4.53;;;;;;;10.82;100.00;97045.06;5036984;28;20213;-68
2023/10/07 02:05:53;;;;;;;12.60;5.40;;;;;;;10.74;100.00;97040.56;5036511;28;20211;-68
2023/10/07 02:08:22;;;;;;;11.97;5.03;;;;;;;10.77;100.00;97034.16;5036740;28;20915;-68
2023/10/07 02:10:50;;;;;;;10.23;4.47;;;;;;;10.78;100.00;97031.38;5036387;28;20304;-68
2023/10/07 02:13:20;;;;;;;11.53;5.07;;;;;;;10.87;100.00;97034.84;5037598;28;20264;-68
2023/10/07 02:15:47;;;;;;;7.77;4.50;;;;;;;10.71;100.00;97035.63;5036401;28;20220;-68
2023/10/07 02:18:16;;;;;;;11.63;5.40;;;;;;;10.63;100.00;97030.31;5035912;28;20205;-68
2023/10/07 02:20:49;;;;;;;12.20;5.83;;;;;;;10.73;100.00;97033.66;5037039;28;20204;-68
2023/10/07 02:23:20;;;;;;;14.63;5.93;;;;;;;10.71;100.00;97035.63;5037329;28;20295;-68
2023/10/07 02:25:49;;;;;;;13.07;6.13;;;;;;;10.72;100.00;97026.75;5035744;28;20205;-68
2023/10/07 02:28:15;;;;;;;12.97;5.63;;;;;;;10.71;100.00;97030.34;5036253;28;20213;-68
2023/10/07 02:30:51;;;;;;;13.10;5.63;;;;;;;10.82;100.00;97031.88;5035187;28;20200;-68
2023/10/07 02:33:21;;;;;;;13.00;5.47;;;;;;;10.77;100.00;97031.53;5036541;28;20224;-68
2023/10/07 02:35:54;;;;;;;13.17;6.03;;;;;;;10.93;100.00;97019.22;5035961;28;20300;-68
2023/10/07 02:38:25;;;;;;;18.47;7.10;;;;;;;10.78;100.00;97030.53;5036716;28;20205;-68
2023/10/07 02:40:52;;;;;;;12.40;5.27;;;;;;;10.81;100.00;97032.88;5036386;28;20201;-68
2023/10/07 02:43:19;;;;;;;16.00;6.70;;;;;;;10.80;100.00;97044.41;5036234;28;20221;-68
2023/10/07 02:45:47;;;;;;;13.10;5.97;;;;;;;10.98;100.00;97038.03;5036301;28;20292;-68
2023/10/07 02:48:13;;;;;;;18.70;6.97;;;;;;;10.91;100.00;97037.03;5035616;28;20217;-68
2023/10/07 02:50:42;;;;;;;13.67;6.23;;;;;;;11.00;100.00;97041.34;5036262;28;20201;-68
2023/10/07 02:53:14;;;;;;;14.10;5.67;;;;;;;10.98;100.00;97041.50;5036480;28;20239;-68
2023/10/07 02:55:47;;;;;;;12.23;5.90;;;;;;;10.88;100.00;97047.88;5036046;28;20220;-68
2023/10/07 02:58:24;;;;;;;13.40;6.23;;;;;;;10.93;100.00;97055.31;5035819;28;20198;-68
2023/10/07 03:00:52;;;;;;;16.77;6.43;;;;;;;10.93;100.00;97041.16;5036125;28;20698;-68
2023/10/07 03:03:32;;;;;;;12.73;5.63;;;;;;;10.84;100.00;97043.91;5034935;28;20258;-68
2023/10/07 03:06:06;;;;;;;15.43;6.07;;;;;;;10.85;100.00;97045.56;5035475;28;20263;-68
2023/10/07 03:08:40;;;;;;;12.67;5.63;;;;;;;10.79;100.00;97042.75;5036340;28;20211;-68
2023/10/07 03:11:11;;;;;;;11.63;5.73;;;;;;;10.73;100.00;97041.56;5036266;28;20302;-68
2023/10/07 03:13:39;;;;;;;15.87;6.00;;;;;;;10.55;100.00;97047.91;5035334;28;21251;-68
2023/10/07 03:16:27;;;;;;;14.30;6.50;;;;;;;10.64;100.00;97055.69;5035875;28;20253;-68
2023/10/07 03:19:06;;;;;;;14.00;5.97;;;;;;;10.64;100.00;97052.22;5035331;28;20200;-68
2023/10/07 03:21:55;;;;;;;15.90;6.93;;;;;;;10.63;100.00;97047.97;5035977;28;20316;-68
2023/10/07 03:24:41;;;;;;;16.90;6.80;;;;;;;10.64;100.00;97062.75;5035690;28;20211;-68
2023/10/07 03:27:11;;;;;;;14.63;6.77;;;;;;;10.69;100.00;97061.34;5035688;28;20201;-68
2023/10/07 03:29:39;;;;;;;14.67;6.53;;;;;;;10.67;100.00;97073.00;5035577;28;20200;-68
2023/10/07 03:32:13;;;;;;;17.50;6.70;;;;;;;10.79;100.00;97074.38;5035790;28;20222;-68
2023/10/07 03:34:45;;;;;;;13.13;6.80;;;;;;;10.68;100.00;97077.28;5035841;28;20236;-68
2023/10/07 03:37:18;;;;;;;13.80;5.73;;;;;;;10.61;100.00;97077.09;5039069;28;20193;-68
2023/10/07 03:39:56;;;;;;;13.47;4.80;;;;;;;10.46;100.00;97081.31;5040291;28;20217;-68
2023/10/07 03:42:22;;;;;;;9.23;4.43;;;;;;;10.41;100.00;97082.72;5039739;28;20229;-68
2023/10/07 03:44:49;;;;;;;11.33;5.00;;;;;;;10.39;100.00;97084.72;5039231;28;20201;-68
2023/10/07 03:47:17;;;;;;;10.27;4.97;;;;;;;10.39;100.00;97082.06;5039132;28;20309;-68
2023/10/07 03:49:52;;;;;;;12.57;4.97;;;;;;;10.15;100.00;97083.72;5040036;28;20197;-68
2023/10/07 03:52:20;;;;;;;10.40;4.90;;;;;;;10.08;100.00;97072.97;5039090;28;20317;-68
2023/10/07 03:54:47;;;;;;;13.13;5.13;;;;;;;10.12;100.00;97079.59;5038792;28;20256;-68
2023/10/07 03:57:15;;;;;;;14.23;5.67;;;;;;;10.05;100.00;97068.00;5039349;28;20657;-68
2023/10/07 03:59:42;;;;;;;10.80;4.83;;;;;;;10.10;100.00;97064.91;5038818;28;20742;-68
2023/10/07 04:02:29;;;;;;;11.33;5.03;;;;;;;10.00;100.00;97062.38;5039313;28;20251;-68
2023/10/07 04:05:00;;;;;;;9.73;5.10;;;;;;;10.10;100.00;97057.84;5038557;28;20197;-70
2023/10/07 04:07:28;;;;;;;12.13;5.57;;;;;;;9.96;100.00;97054.94;5038752;28;20282;-68
2023/10/07 04:09:54;;;;;;;11.23;5.47;;;;;;;9.90;100.00;97052.88;5039094;28;20303;-68
2023/10/07 04:12:22;;;;;;;14.80;6.13;;;;;;;9.98;100.00;97048.53;5039523;28;20778;-68
2023/10/07 04:14:55;;;;;;;11.37;5.60;;;;;;;10.03;100.00;97054.19;5038889;28;20221;-68
2023/10/07 04:17:23;;;;;;;13.37;5.77;;;;;;;9.88;100.00;97054.84;5038338;28;20559;-68
2023/10/07 04:19:53;;;;;;;18.50;6.67;;;;;;;10.04;100.00;97042.69;5039343;28;20217;-69
2023/10/07 04:22:24;;;;;;;18.30;7.03;;;;;;;10.20;100.00;97037.50;5039880;28;20235;-69
2023/10/07 04:24:51;;;;;;;15.13;5.53;;;;;;;10.12;100.00;97037.47;5037722;28;20203;-69
2023/10/07 04:27:20;;;;;;;15.40;6.73;;;;;;;10.20;100.00;97037.50;5038689;28;20197;-69
2023/10/07 04:29:47;;;;;;;16.33;7.77;;;;;;;10.19;100.00;97051.66;5039401;28;20223;-69
2023/10/07 04:32:20;;;;;;;20.30;7.30;;;;;;;10.35;100.00;97054.41;5038903;28;20240;-69
2023/10/07 04:35:06;;;;;;;17.07;7.17;;;;;;;10.44;100.00;97064.00;5038722;28;20217;-69
2023/10/07 04:37:47;;;;;;;16.53;6.93;;;;;;;10.76;100.00;97053.63;5038132;28;20347;-69
2023/10/07 04:43:25;;;;;;;11.47;6.13;;;;;;;10.19;100.00;97067.44;5038277;28;20227;-69
2023/10/07 04:45:50;;;;;;;13.57;6.67;;;;;;;10.14;100.00;97069.72;5037709;28;20258;-69
2023/10/07 04:48:32;;;;;;;15.27;5.97;;;;;;;10.09;100.00;97071.16;5037181;28;20204;-69
2023/10/07 04:51:04;;;;;;;12.67;5.60;;;;;;;9.99;100.00;97076.53;5038628;28;20197;-69
2023/10/07 04:53:38;;;;;;;14.83;6.43;;;;;;;10.22;100.00;97063.69;5038923;28;20205;-69
2023/10/07 04:56:06;;;;;;;14.23;6.77;;;;;;;10.00;100.00;97058.91;5037561;28;20929;-69
2023/10/07 04:58:32;;;;;;;11.53;5.03;;;;;;;9.78;100.00;97057.56;5038033;28;20205;-69
2023/10/07 05:01:06;;;;;;;12.07;6.07;;;;;;;9.63;100.00;97070.59;5038375;28;20205;-69
2023/10/07 05:03:33;;;;;;;16.33;6.40;;;;;;;9.89;100.00;97093.34;5038590;28;20236;-69
2023/10/07 05:05:59;;;;;;;13.10;5.93;;;;;;;9.80;100.00;97086.34;5037817;28;20201;-68
2023/10/07 05:08:27;;;;;;;12.50;6.00;;;;;;;9.78;100.00;97086.50;5037806;28;20233;-69
2023/10/07 05:11:04;;;;;;;12.53;6.07;;;;;;;10.02;100.00;97092.03;5036559;28;20201;-69
2023/10/07 05:13:33;;;;;;;9.77;5.07;;;;;;;9.85;100.00;97081.47;5037779;28;20209;-69
2023/10/07 05:15:59;;;;;;;14.87;6.20;;;;;;;9.72;100.00;97086.28;5037075;28;20235;-69
2023/10/07 05:18:25;;;;;;;10.27;5.33;;;;;;;9.72;100.00;97092.41;5037708;28;20201;-69
2023/10/07 05:20:52;;;;;;;12.63;5.17;;;;;;;9.63;100.00;97089.84;5036716;28;20201;-69
2023/10/07 05:23:19;;;;;;;11.13;5.10;;;;;;;9.56;100.00;97085.31;5037282;28;20241;-69
2023/10/07 05:25:49;;;;;;;12.97;5.90;;;;;;;9.73;100.00;97072.97;5037900;28;20547;-69
2023/10/07 05:28:20;;;;;;;15.37;6.33;;;;;;;9.87;100.00;97075.06;5037071;28;20201;-69
2023/10/07 05:30:51;;;;;;;12.03;5.70;;;;;;;9.75;100.00;97078.94;5037312;28;20693;-69
2023/10/07 05:33:20;;;;;;;14.07;6.70;;;;;;;9.75;100.00;97072.84;5037371;28;21042;-69
2023/10/07 05:35:49;;;;;;;14.20;5.93;;;;;;;9.75;100.00;97073.66;5037342;28;20225;-68
2023/10/07 05:38:17;;;;;;;13.23;6.27;;;;;;;9.76;100.00;97077.13;5036659;28;20228;-69
2023/10/07 05:40:43;;;;;;;16.40;7.37;;;;;;;9.83;100.00;97083.44;5038238;28;20205;-69
2023/10/07 05:43:10;;;;;;;16.00;6.87;;;;;;;9.92;100.00;97083.34;5036888;28;20270;-69
2023/10/07 05:45:40;;;;;;;16.37;7.40;;;;;;;10.13;100.00;97081.25;5036840;28;20208;-69
2023/10/07 05:48:07;;;;;;;21.27;8.47;;;;;;;10.11;100.00;97085.84;5036342;28;20201;-69
2023/10/07 05:50:34;;;;;;;14.40;6.97;;;;;;;10.12;100.00;97084.84;5038779;28;20251;-69
2023/10/07 05:53:03;;;;;;;16.67;7.13;;;;;;;10.15;100.00;97083.72;5036909;28;20224;-68
2023/10/07 05:55:30;;;;;;;16.63;7.43;;;;;;;10.25;100.00;97093.19;5037063;28;20324;-69
2023/10/07 05:57:58;;;;;;;19.87;7.70;;;;;;;10.34;100.00;97094.88;5036951;28;20201;-69
2023/10/07 06:00:25;;;;;;;21.73;8.27;;;;;;;10.48;100.00;97089.88;5037518;28;20205;-69
2023/10/07 06:02:55;;;;;;;17.53;7.03;;;;;;;10.60;100.00;97075.44;5036778;28;21083;-69
2023/10/07 06:05:27;;;;;;;18.80;8.03;;;;;;;10.53;100.00;97070.97;5037893;28;20205;-69
2023/10/07 06:07:54;;;;;;;16.77;7.07;;;;;;;10.58;100.00;97058.97;5036396;28;21018;-69
2023/10/07 06:10:24;;;;;;;15.73;7.73;;;;;;;10.62;100.00;97060.28;5037104;28;20683;-69
2023/10/07 06:12:53;;;;;;;18.20;7.73;;;;;;;10.78;100.00;97056.91;5036658;28;20221;-69
2023/10/07 06:15:19;;;;;;;21.33;8.33;;;;;;;10.89;100.00;97064.53;5035773;28;20225;-69
2023/10/07 06:17:46;;;;;;;18.23;7.63;;;;;;;10.94;100.00;97058.59;5035696;28;21180;-69
2023/10/07 06:20:15;;;;;;;23.60;8.43;;;;;;;11.14;100.00;97056.56;5037402;28;20207;-69
2023/10/07 06:22:46;;;;;;;24.73;8.13;;;;;;;11.16;100.00;97047.50;5036201;28;20839;-69
2023/10/07 06:25:14;;;;;;;21.30;9.43;;;;;;;11.34;100.00;97050.00;5036478;28;20209;-69
2023/10/07 06:27:43;;;;;;;20.70;9.10;;;;;;;11.33;100.00;97058.88;5035765;28;21207;-69
2023/10/07 06:30:12;;;;;;;21.37;9.33;;;;;;;11.37;100.00;97060.25;5036520;28;20211;-69
2023/10/07 06:32:55;;;;;;;20.70;8.00;;;;;;;11.40;100.00;97070.47;5036695;28;20236;-69
2023/10/07 06:35:23;;;;;;;24.33;8.93;;;;;;;11.52;100.00;97079.75;5035952;28;20282;-69
2023/10/07 06:37:50;;;;;;;20.23;7.67;;;;;;;11.55;100.00;97085.53;5034670;28;20209;-69
2023/10/07 06:40:25;;;;;;;20.13;8.87;;;;;;;11.63;100.00;97085.53;5035356;28;20658;-69
2023/10/07 06:42:55;;;;;;;27.53;8.50;;;;;;;11.72;100.00;97098.63;5035662;28;20311;-69
2023/10/07 06:45:22;;;;;;;20.03;8.40;;;;;;;11.57;100.00;97099.41;5035602;28;20205;-69
2023/10/07 06:47:48;;;;;;;14.80;6.87;;;;;;;11.47;100.00;97103.97;5035147;28;20201;-69
2023/10/07 06:50:19;;;;;;;13.50;6.07;;;;;;;11.53;100.00;97105.16;5036617;28;20197;-69
2023/10/07 06:52:49;;;;;;;16.37;6.90;;;;;;;11.73;100.00;97109.97;5036103;28;20599;-69
2023/10/07 06:55:19;;;;;;;17.07;7.70;;;;;;;11.75;100.00;97113.31;5035563;28;20194;-69
2023/10/07 06:57:47;;;;;;;15.53;6.73;;;;;;;11.62;100.00;97112.91;5035523;28;20865;-69
2023/10/07 07:00:22;;;;;;;16.50;7.10;;;;;;;11.90;100.00;97111.66;5036642;28;20254;-69
2023/10/07 07:02:54;;;;;;;14.23;6.47;;;;;;;11.83;100.00;97126.50;5034932;28;20260;-69
2023/10/07 07:05:23;;;;;;;17.27;6.90;;;;;;;11.85;100.00;97119.22;5035213;28;20805;-69
2023/10/07 07:07:52;;;;;;;18.67;7.37;;;;;;;11.96;100.00;97118.94;5035693;28;20216;-69
2023/10/07 07:10:27;;;;;;;19.20;7.80;;;;;;;12.14;100.00;97119.59;5035714;28;20228;-69
2023/10/07 07:12:58;;;;;;;16.17;7.30;;;;;;;12.20;100.00;97115.28;5035110;28;20604;-69
2023/10/07 07:15:27;;;;;;;21.73;8.67;;;;;;;12.25;100.00;97112.97;5034643;28;20205;-69
2023/10/07 07:18:03;;;;;;;16.90;8.00;;;;;;;12.32;100.00;97135.13;5034240;28;20290;-69
2023/10/07 07:20:48;;;;;;;20.00;9.20;;;;;;;12.35;100.00;97140.06;5035485;28;20204;-69
2023/10/07 07:23:16;;;;;;;18.87;7.77;;;;;;;12.62;100.00;97134.41;5034996;28;20225;-69
2023/10/07 07:25:50;;;;;;;15.20;7.50;;;;;;;12.61;100.00;97140.69;5034660;28;20283;-69
2023/10/07 07:28:17;;;;;;;19.10;8.13;;;;;;;12.75;100.00;97131.25;5034996;28;20206;-69
2023/10/07 07:30:45;;;;;;;15.13;7.07;;;;;;;12.77;100.00;97149.44;5035716;28;20386;-69
2023/10/07 07:33:13;;;;;;;21.97;8.23;;;;;;;12.92;100.00;97144.31;5035484;28;20231;-69
2023/10/07 07:35:43;;;;;;;16.83;8.07;;;;;;;13.09;100.00;97125.56;5034663;28;20225;-69
2023/10/07 07:38:25;;;;;;;16.80;6.83;;;;;;;13.19;100.00;97136.78;5034739;28;20203;-69
2023/10/07 07:41:03;;;;;;;19.27;8.47;;;;;;;13.35;100.00;97133.25;5034709;28;20616;-69
2023/10/07 07:43:29;;;;;;;17.87;7.97;;;;;;;13.32;100.00;97136.25;5035519;28;20286;-69
2023/10/07 07:46:11;;;;;;;15.47;7.03;;;;;;;13.57;100.00;97131.47;5034897;28;20223;-69
2023/10/07 07:48:38;;;;;;;14.77;6.97;;;;;;;13.49;100.00;97131.53;5035149;28;20216;-69
2023/10/07 07:51:04;;;;;;;15.07;6.63;;;;;;;13.79;100.00;97135.97;5033662;28;20201;-69
2023/10/07 07:53:31;;;;;;;15.23;7.10;;;;;;;13.82;100.00;97135.63;5035411;28;20208;-69
2023/10/07 07:55:59;;;;;;;16.63;6.97;;;;;;;13.98;100.00;97143.47;5034829;28;20220;-69
2023/10/07 07:58:26;;;;;;;13.90;7.00;;;;;;;13.96;100.00;97144.66;5034759;28;20671;-70
2023/10/07 08:01:04;;;;;;;15.17;6.63;;;;;;;14.20;100.00;97142.69;5034936;28;20228;-70
2023/10/07 08:03:32;;;;;;;14.50;6.83;;;;;;;14.21;100.00;97147.81;5034598;28;20595;-70
2023/10/07 08:06:01;;;;;;;15.40;6.20;;;;;;;14.30;100.00;97156.53;5034123;28;20204;-70
2023/10/07 08:08:29;;;;;;;14.80;6.50;;;;;;;14.38;100.00;97159.13;5035436;28;20256;-70
2023/10/07 08:10:56;;;;;;;15.67;5.87;;;;;;;14.46;100.00;97151.94;5035185;28;20698;-70
2023/10/07 08:13:27;;;;;;;12.43;5.27;;;;;;;14.77;100.00;97150.78;5034392;28;20603;-70
2023/10/07 08:15:54;;;;;;;12.97;5.27;;;;;;;14.64;100.00;97147.94;5033059;28;21032;-70
2023/10/07 08:18:28;;;;;;;13.30;5.53;;;;;;;14.91;100.00;97151.84;5034729;28;20541;-69
2023/10/07 08:21:06;;;;;;;9.63;4.88;;;;;;;15.12;100.00;97152.78;5034647;28;20209;-69
2023/10/07 08:23:36;;;;;;;13.60;5.30;;;;;;;15.00;100.00;97146.25;5036989;28;20574;-69
2023/10/07 08:26:08;;;;;;;11.10;5.05;;;;;;;15.18;100.00;97146.72;5038061;28;20197;-69
2023/10/07 08:28:45;;;;;;;12.00;5.30;;;;;;;15.61;100.00;97156.53;5037459;28;20250;-69
2023/10/07 08:31:16;;;;;;;12.77;5.10;;;;;;;15.78;100.00;97157.94;5037653;28;20200;-69
2023/10/07 08:33:47;;;;;;;11.97;5.13;;;;;;;15.93;100.00;97160.38;5038211;28;20216;-69
2023/10/07 08:36:14;;;;;;;10.38;4.35;;;;;;;15.97;100.00;97158.16;5038370;28;20282;-69
2023/10/07 08:38:44;;;;;;;10.75;4.50;;;;;;;15.89;100.00;97152.97;5038360;28;20202;-70
2023/10/07 08:41:16;;;;;;;8.82;4.50;;;;;;;15.92;100.00;97150.78;5038759;28;20270;-70
2023/10/07 08:43:45;;;;;;;7.53;4.00;;;;;;;16.21;100.00;97149.84;5037866;28;20201;-69
2023/10/07 08:46:16;;;;;;;7.57;4.18;;;;;;;16.03;100.00;97139.63;5036705;28;20213;-69
2023/10/07 08:48:49;;;;;;;7.63;4.15;;;;;;;15.98;100.00;97128.72;5037475;28;20205;-69
2023/10/07 08:51:21;;;;;;;9.90;4.35;;;;;;;16.23;100.00;97145.13;5038195;28;20228;-69
2023/10/07 08:53:48;;;;;;;9.95;4.82;;;;;;;16.38;100.00;97135.28;5037277;28;20693;-69
2023/10/07 08:56:17;;;;;;;7.63;3.88;;;;;;;16.53;100.00;97144.84;5038263;28;20271;-69
2023/10/07 08:58:48;;;;;;;9.45;4.15;;;;;;;16.61;100.00;97131.41;5037154;28;20201;-70
2023/10/07 09:01:18;;;;;;;7.38;4.07;;;;;;;16.60;100.00;97125.28;5037711;28;20223;-69
2023/10/07 09:03:47;;;;;;;10.85;4.65;;;;;;;17.06;100.00;97122.94;5037433;28;20694;-69
2023/10/07 09:06:14;;;;;;;9.07;3.17;;;;;;;17.03;100.00;97118.84;5037874;28;20615;-69
2023/10/07 09:08:43;;;;;;;10.75;4.47;;;;;;;17.01;100.00;97117.38;5036848;28;20571;-69
2023/10/07 09:11:12;;;;;;;10.75;3.67;;;;;;;17.29;100.00;97117.16;5038050;28;20212;-70
2023/10/07 09:13:39;;;;;;;8.75;3.47;;;;;;;17.15;100.00;97107.41;5037005;28;20603;-69
2023/10/07 09:16:10;;;;;;;6.15;3.55;;;;;;;17.53;100.00;97116.66;5037464;28;20229;-70
2023/10/07 09:18:39;;;;;;;11.68;3.60;;;;;;;17.43;100.00;97124.19;5038733;28;20220;-70
2023/10/07 09:21:09;;;;;;;6.72;3.25;;;;;;;17.71;100.00;97121.47;5038610;28;20286;-70
2023/10/07 09:23:43;;;;;;;7.68;3.30;;;;;;;17.65;100.00;97136.41;5036434;28;20623;-70
2023/10/07 09:26:21;;;;;;;7.07;3.33;;;;;;;17.83;100.00;97129.50;5037613;28;20200;-70
2023/10/07 09:28:51;;;;;;;7.85;3.53;;;;;;;17.92;100.00;97130.97;5037528;28;20209;-70
2023/10/07 09:31:23;;;;;;;7.28;3.17;;;;;;;18.07;100.00;97136.13;5037827;28;20206;-70
2023/10/07 09:33:50;;;;;;;4.95;2.80;;;;;;;17.91;100.00;97133.84;5036910;28;20205;-70
2023/10/07 09:36:33;;;;;;;5.05;2.65;;;;;;;18.27;100.00;97139.72;5036965;28;20225;-70
2023/10/07 09:39:15;;;;;;;5.40;2.10;;;;;;;18.33;100.00;97146.91;5035045;28;21082;-70
2023/10/07 09:41:43;;;;;;;3.75;1.80;;;;;;;18.35;100.00;97159.00;5037702;28;20236;-70
2023/10/07 09:44:26;;;;;;;4.18;2.40;;;;;;;18.66;100.00;97152.09;5037653;28;20300;-70
2023/10/07 09:46:55;;;;;;;5.95;2.75;;;;;;;19.04;97.70;97150.41;5037202;28;20206;-70
2023/10/07 09:49:23;;;;;;;7.05;2.80;;;;;;;18.77;96.34;97148.78;5037764;28;20205;-70
2023/10/07 09:51:50;;;;;;;7.45;2.90;;;;;;;19.10;96.34;97136.25;5037209;28;20248;-70
2023/10/07 09:54:47;;;;;;;5.88;2.47;;;;;;;19.39;94.68;97146.50;5038039;28;20316;-70
2023/10/07 09:57:24;;;;;;;2.72;1.48;;;;;;;19.19;93.86;97145.69;5036874;28;20659;-70
2023/10/07 10:00:40;;;;;;;7.28;1.58;;;;;;;19.32;91.86;97148.34;5037324;28;20205;-69
2023/10/07 10:03:36;;;;;;;5.07;2.22;;;;;;;19.42;92.68;97148.75;5036556;28;20842;-69
2023/10/07 10:06:16;;;;;;;4.47;1.92;;;;;;;19.60;93.48;97153.22;5037144;28;20205;-70
2023/10/07 10:08:59;;;;;;;2.58;1.38;;;;;;;19.80;93.99;97140.56;5036626;28;21259;-70
2023/10/07 10:11:44;;;;;;;2.72;1.58;;;;;;;19.82;94.93;97140.38;5036573;28;20789;-70
2023/10/07 10:14:19;;;;;;;6.45;1.90;;;;;;;19.82;87.63;97130.50;5037476;28;20225;-70
2023/10/07 10:16:50;;;;;;;4.72;1.90;;;;;;;19.82;90.47;97125.16;5036477;28;20229;-70
2023/10/07 10:19:29;;;;;;;5.30;1.67;;;;;;;20.28;82.25;97121.22;5036568;28;20635;-70
2023/10/07 10:21:56;;;;;;;1.98;1.20;;;;;;;19.82;79.03;97130.50;5036823;28;20252;-69
2023/10/07 10:24:29;;;;;;;6.05;2.33;;;;;;;20.16;80.23;97132.00;5036766;28;20253;-69
2023/10/07 10:27:06;;;;;;;5.95;2.15;;;;;;;20.45;79.81;97124.19;5036592;28;20209;-69
2023/10/07 10:29:36;;;;;;;3.63;1.40;;;;;;;20.04;82.40;97133.72;5037144;28;20201;-70
2023/10/07 10:32:07;;;;;;;6.43;1.52;;;;;;;20.13;75.63;97135.13;5035866;28;21216;-69
2023/10/07 10:34:35;;;;;;;4.45;1.50;;;;;;;20.44;77.67;97134.09;5038798;28;20208;-69
2023/10/07 10:37:05;;;;;;;4.38;1.73;;;;;;;20.71;78.60;97129.34;5035242;28;20867;-69
2023/10/07 10:39:32;;;;;;;5.38;1.45;;;;;;;20.68;74.27;97132.47;5036162;28;20209;-69
2023/10/07 10:42:02;;;;;;;3.50;1.67;;;;;;;20.85;72.56;97118.38;5035795;28;20225;-70
2023/10/07 10:44:36;;;;;;;2.22;1.15;;;;;;;21.07;70.93;97128.44;5037548;28;20204;-70
2023/10/07 10:47:03;;;;;;;7.07;1.73;;;;;;;20.43;68.57;97128.94;5034656;28;20946;-69
2023/10/07 10:49:31;;;;;;;3.10;1.13;;;;;;;20.47;66.09;97125.63;5036443;28;21106;-69
2023/10/07 10:52:02;;;;;;;5.32;1.33;;;;;;;20.81;66.27;97119.81;5036032;28;20221;-69
2023/10/07 10:54:29;;;;;;;1.80;0.93;;;;;;;20.68;65.01;97113.72;5036538;28;20205;-69
2023/10/07 10:56:57;;;;;;;1.95;0.80;;;;;;;20.78;64.49;97109.53;5035453;28;20229;-70
2023/10/07 10:59:40;;;;;;;2.10;1.25;;;;;;;20.68;64.26;97119.09;5036629;28;20294;-69
2023/10/07 11:02:07;;;;;;;4.07;1.20;;;;;;;20.62;65.89;97120.78;5035496;28;20230;-69
2023/10/07 11:04:34;;;;;;;1.50;0.90;;;;;;;20.53;64.98;97124.78;5035938;28;20205;-69
2023/10/07 11:07:06;;;;;;;2.95;1.42;;;;;;;20.83;66.32;97103.53;5035198;28;20676;-69
2023/10/07 11:09:37;;;;;;;1.20;1.10;;;;;;;20.50;68.44;97113.66;5036102;28;20209;-69
2023/10/07 11:12:09;;;;;;;5.28;1.25;;;;;;;20.39;67.05;97123.22;5036023;28;20236;-69
2023/10/07 11:14:37;;;;;;;3.08;1.17;;;;;;;20.51;67.80;97126.03;5036382;28;20297;-69
2023/10/07 11:17:04;;;;;;;1.80;1.13;;;;;;;20.54;70.48;97128.25;5035112;28;20615;-69
2023/10/07 11:19:31;;;;;;;3.00;1.27;;;;;;;20.52;67.24;97125.81;5036441;28;20223;-69
2023/10/07 11:21:57;;;;;;;4.25;1.98;;;;;;;20.57;70.22;97120.63;5036284;28;20328;-70
2023/10/07 11:24:26;;;;;;;2.13;1.10;;;;;;;20.80;69.95;97115.53;5035929;28;20215;-69
2023/10/07 11:26:56;;;;;;;2.20;1.35;;;;;;;20.82;68.59;97109.94;5035372;28;20205;-69
2023/10/07 11:29:29;;;;;;;6.40;1.75;;;;;;;20.97;70.52;97112.03;5036251;28;20228;-69
2023/10/07 11:31:59;;;;;;;3.35;1.33;;;;;;;21.09;68.24;97099.59;5035931;28;20225;-69
2023/10/07 11:34:36;;;;;;;3.65;1.27;;;;;;;21.26;67.71;97100.63;5036268;28;20201;-69
2023/10/07 11:37:10;;;;;;;4.45;1.90;;;;;;;21.37;68.02;97099.88;5035227;28;20226;-69
2023/10/07 11:39:44;;;;;;;1.67;1.00;;;;;;;21.44;66.47;97098.78;5036086;28;21365;-70
2023/10/07 11:42:13;;;;;;;4.28;1.35;;;;;;;21.15;63.94;97093.31;5035018;28;20228;-69